Gunnison, CO

15:44 MDT le 26 juillet 2016 (GMT -0600)
Gunnison County | | Change Station

Alt. 7674 ft 38.53 °N, 106.93 °W | Updated 9 minutes ago

Clear
Ciel dégagé
77 ° F
Paraît 77 ° F
N
17
Vent Variable Vent de NO
Gusts 22 mph

Aujourd'hui
Haut(e) -- | Bas -- ° F
--% Risque de précip.
Hier
Haut(e) -- | Bas -- ° F
Precip. -- pouce
Pression 30.38 pouce
Visibilité 10.0 Miles terrestres
Nuages Ciel dégagé
Point de rosée 39 ° F
Humidité 26%
Précipitations 0.00 pouce
Profondeur de la couche neigeuse Non disponible.
6:04 AM 8:23 PM
Lune gibbeuse décroissante, 51% visible
METAR KGUC 262135Z AUTO 32015G19KT 10SM CLR 25/04 A3038 RMK AO1
Pression 30.38 pouce
Visibilité 10.0 Miles terrestres
Nuages Ciel dégagé
Point de rosée 39 ° F
Humidité 26%
Précipitations 0.00 pouce
Profondeur de la couche neigeuse Non disponible.
6:04 AM 8:23 PM
Lune gibbeuse décroissante, 51% visible
METAR KGUC 262135Z AUTO 32015G19KT 10SM CLR 25/04 A3038 RMK AO1

10-Day Weather Forecast

Almanac

Astronomie

Jul. 26, 2016 Lever Coucher
Temps réel
Crépuscule civil
Crépuscule nautique
Crépuscule astronomique
Lune
Durée de lumière visible
Longueur du jour
Tomorrow will be .
, % of the Moon is Illuminated

Extrêmes aujourd'hui

State Highs State Lows

Community

WunderPhotos

Upload Photos

1,927,702 Photos téléchargées !

WunderBlog® & News

Nearby

Qualité de l'air

  Qualité de l'air Indice de la qualité de l'air Polluant
Not available.

Épaisseur de neige

Station Depth Altitude

Activité sismique

Ville Distance Mag. Time & Date
Minimum magnitude displayed is 2.5.

Températures des eaux côtières

Lieu Température

Stations

Stations météo à proximité

Emplacement de la station Température Refroidissement éolien Point de rosée Humidité Vent Precip. Alt. Mise à jour Type
                   

Watches & Warnings

There are currently no watches in effect.